createdAt,value
2017-03-04T00:00:49.793Z,22.94
2017-03-04T00:01:49.720Z,22.98
2017-03-04T00:02:49.674Z,22.93
2017-03-04T00:03:49.609Z,22.88
2017-03-04T00:04:49.544Z,22.94
2017-03-04T00:05:49.474Z,22.99
2017-03-04T00:06:49.418Z,22.96
2017-03-04T00:07:49.351Z,22.93
2017-03-04T00:08:49.299Z,23
2017-03-04T00:09:49.241Z,22.91
2017-03-04T00:10:49.163Z,22.93
2017-03-04T00:11:49.099Z,22.94
2017-03-04T00:12:49.039Z,22.94
2017-03-04T00:13:48.978Z,22.91
2017-03-04T00:14:48.935Z,22.99
2017-03-04T00:15:48.866Z,22.96
2017-03-04T00:16:48.825Z,22.96
2017-03-04T00:17:48.735Z,22.93
2017-03-04T00:18:48.683Z,22.93
2017-03-04T00:19:48.605Z,22.96
2017-03-04T00:20:48.547Z,22.98
2017-03-04T00:21:48.510Z,22.87
2017-03-04T00:22:48.417Z,22.9
2017-03-04T00:23:48.373Z,22.94
2017-03-04T00:24:48.315Z,22.93
2017-03-04T00:25:48.227Z,23.02
2017-03-04T00:26:48.178Z,22.99
2017-03-04T00:27:48.119Z,22.99
2017-03-04T00:28:48.047Z,22.91
2017-03-04T00:29:47.996Z,22.93
2017-03-04T00:30:47.546Z,22.98
2017-03-04T00:31:47.860Z,22.9
2017-03-04T00:32:47.809Z,22.93
2017-03-04T00:33:47.747Z,23
2017-03-04T00:34:47.693Z,23.02
2017-03-04T00:35:47.633Z,22.91
2017-03-04T00:36:47.838Z,23
2017-03-04T00:37:47.108Z,22.98
2017-03-04T00:38:47.439Z,22.99
2017-03-04T00:39:47.374Z,22.99
2017-03-04T00:40:47.306Z,22.98
2017-03-04T00:41:47.255Z,22.98
2017-03-04T00:42:47.188Z,23
2017-03-04T00:43:47.127Z,22.98
2017-03-04T00:44:47.092Z,22.98
2017-03-04T00:45:46.992Z,22.98
2017-03-04T00:46:46.934Z,22.96
2017-03-04T00:47:46.868Z,23.02
2017-03-04T00:48:46.806Z,22.99
2017-03-04T00:49:46.742Z,23.02
2017-03-04T00:50:46.694Z,23
2017-03-04T00:51:46.645Z,23.03
2017-03-04T00:52:46.865Z,22.99
2017-03-04T00:53:46.107Z,22.99
2017-03-04T00:54:46.431Z,22.98
2017-03-04T00:55:46.379Z,22.99
2017-03-04T00:56:46.597Z,22.99
2017-03-04T00:57:46.253Z,23.02
2017-03-04T00:58:46.492Z,23.02
2017-03-04T00:59:46.442Z,23
2017-03-04T01:01:16.067Z,23.03
2017-03-04T01:02:15.974Z,23.02
2017-03-04T01:03:15.913Z,23.02
2017-03-04T01:04:15.849Z,22.96
2017-03-04T01:05:15.783Z,23.02
2017-03-04T01:06:15.720Z,22.94
2017-03-04T01:07:15.950Z,23.02
2017-03-04T01:08:15.213Z,22.99
2017-03-04T01:09:15.561Z,23.02
2017-03-04T01:10:15.475Z,22.99
2017-03-04T01:11:15.425Z,23
2017-03-04T01:12:15.352Z,22.98
2017-03-04T01:13:15.289Z,23.02
2017-03-04T01:14:15.225Z,23.05
2017-03-04T01:15:15.170Z,23
2017-03-04T01:16:15.101Z,23
2017-03-04T01:17:15.039Z,23.03
2017-03-04T01:18:14.978Z,23.03
2017-03-04T01:19:15.202Z,23.02
2017-03-04T01:20:14.877Z,23.02
2017-03-04T01:21:14.805Z,22.98
2017-03-04T01:22:14.346Z,22.99
2017-03-04T01:23:14.687Z,23
2017-03-04T01:24:14.601Z,23
2017-03-04T01:25:14.553Z,23
2017-03-04T01:26:14.484Z,23
2017-03-04T01:27:14.449Z,23.02
2017-03-04T01:28:14.367Z,23
2017-03-04T01:29:14.301Z,23.03
2017-03-04T01:30:14.232Z,22.99
2017-03-04T01:31:14.180Z,23.05
2017-03-04T01:32:14.128Z,23.05
2017-03-04T01:33:14.059Z,23.02
2017-03-04T01:34:13.995Z,22.98
2017-03-04T01:35:13.577Z,23.05
2017-03-04T01:36:14.157Z,23.06
2017-03-04T01:37:13.810Z,23.05
2017-03-04T01:38:13.736Z,23.02
2017-03-04T01:39:13.691Z,23.03
2017-03-04T01:40:13.626Z,22.98
2017-03-04T01:41:13.589Z,23.03
2017-03-04T01:42:13.590Z,23.02
2017-03-04T01:43:13.435Z,23.03
2017-03-04T01:44:13.666Z,23.06
2017-03-04T01:45:13.306Z,23.03
2017-03-04T01:46:13.244Z,23.05
2017-03-04T01:47:13.291Z,23.05
2017-03-04T01:48:13.117Z,23.03
2017-03-04T01:49:13.351Z,23.03
2017-03-04T01:50:13.004Z,23.06
2017-03-04T01:51:12.928Z,23.03
2017-03-04T01:52:12.867Z,23.05
2017-03-04T01:53:12.818Z,23.03
2017-03-04T01:54:12.768Z,22.98
2017-03-04T01:55:12.679Z,23.02
2017-03-04T01:56:12.627Z,23.02
2017-03-04T01:57:12.555Z,23
2017-03-04T01:58:12.493Z,23.06
2017-03-04T01:59:12.054Z,23.05
2017-03-04T02:00:12.406Z,23.03
2017-03-04T02:01:12.311Z,23.06
2017-03-04T02:02:12.549Z,22.99
2017-03-04T02:03:12.198Z,23.03
2017-03-04T02:04:11.742Z,23.03
2017-03-04T02:05:12.083Z,23.02
2017-03-04T02:06:11.999Z,23.05
2017-03-04T02:07:11.937Z,23.05
2017-03-04T02:08:12.164Z,23.03
2017-03-04T02:09:11.829Z,23.03
2017-03-04T02:10:11.748Z,23.03
2017-03-04T02:11:11.990Z,23.06
2017-03-04T02:12:11.244Z,23.05
2017-03-04T02:13:11.560Z,23.06
2017-03-04T02:14:11.786Z,23.08
2017-03-04T02:15:11.439Z,23.06
2017-03-04T02:16:10.594Z,23.02
2017-03-04T02:17:11.314Z,23.08
2017-03-04T02:18:11.250Z,23.06
2017-03-04T02:19:11.195Z,23.02
2017-03-04T02:20:11.133Z,22.99
2017-03-04T02:21:11.065Z,23.03
2017-03-04T02:22:11.026Z,23.03
2017-03-04T02:23:11.108Z,23.05
2017-03-04T02:24:10.489Z,23
2017-03-04T02:25:10.826Z,23.03
2017-03-04T02:26:10.429Z,23.02
2017-03-04T02:27:10.696Z,22.99
2017-03-04T02:28:10.786Z,23.02
2017-03-04T02:29:10.577Z,23.02
2017-03-04T02:30:10.509Z,23.1
2017-03-04T02:31:10.452Z,23.05
2017-03-04T02:32:10.285Z,23.02
2017-03-04T02:33:10.222Z,23.06
2017-03-04T02:34:10.296Z,23
2017-03-04T02:35:10.488Z,23.03
2017-03-04T02:36:09.742Z,23.03
2017-03-04T02:37:10.124Z,23.05
2017-03-04T02:38:10.017Z,23.03
2017-03-04T02:39:09.949Z,23.08
2017-03-04T02:40:09.509Z,23.05
2017-03-04T02:41:09.827Z,23.03
2017-03-04T02:42:09.786Z,23
2017-03-04T02:43:09.704Z,23.02
2017-03-04T02:44:09.929Z,23.06
2017-03-04T02:45:09.579Z,23.03
2017-03-04T02:46:09.525Z,23.05
2017-03-04T02:47:09.450Z,23.02
2017-03-04T02:48:09.399Z,23
2017-03-04T02:49:09.349Z,23.03
2017-03-04T02:50:09.267Z,23.08
2017-03-04T02:51:09.209Z,23.05
2017-03-04T02:52:09.432Z,23.1
2017-03-04T02:53:09.091Z,23.08
2017-03-04T02:54:09.023Z,23.05
2017-03-04T02:55:08.564Z,23.05
2017-03-04T02:56:08.898Z,23.03
2017-03-04T02:57:08.879Z,23.03
2017-03-04T02:58:08.789Z,23.06
2017-03-04T02:59:09.280Z,23.02
2017-03-04T03:00:08.651Z,23.06
2017-03-04T03:01:08.593Z,23.06
2017-03-04T03:02:08.552Z,23.09
2017-03-04T03:03:08.482Z,23.1
2017-03-04T03:04:08.398Z,23.03
2017-03-04T03:05:07.963Z,23.09
2017-03-04T03:06:07.896Z,23.08
2017-03-04T03:07:08.220Z,23.03
2017-03-04T03:08:08.180Z,23.1
2017-03-04T03:09:08.092Z,23.05
2017-03-04T03:10:07.644Z,23.09
2017-03-04T03:11:07.574Z,23.08
2017-03-04T03:12:07.905Z,23.05
2017-03-04T03:13:07.838Z,23.09
2017-03-04T03:14:07.779Z,23.05
2017-03-04T03:15:07.338Z,23.1
2017-03-04T03:16:07.658Z,23.08
2017-03-04T03:17:07.597Z,23.12
2017-03-04T03:18:07.146Z,23.09
2017-03-04T03:19:07.081Z,23.15
2017-03-04T03:20:07.413Z,23.06
2017-03-04T03:21:07.363Z,23.08
2017-03-04T03:22:07.289Z,23.08
2017-03-04T03:23:07.222Z,23.1
2017-03-04T03:24:07.157Z,23.06
2017-03-04T03:25:07.105Z,23.08
2017-03-04T03:26:07.036Z,23.06
2017-03-04T03:27:06.972Z,23.06
2017-03-04T03:28:06.927Z,23.1
2017-03-04T03:29:06.867Z,23.13
2017-03-04T03:30:06.801Z,23.18
2017-03-04T03:31:06.733Z,23.06
2017-03-04T03:32:06.665Z,23.09
2017-03-04T03:33:06.620Z,23.03
2017-03-04T03:34:06.546Z,23.09
2017-03-04T03:35:06.490Z,23.09
2017-03-04T03:36:06.418Z,23.08
2017-03-04T03:37:06.365Z,23.08
2017-03-04T03:38:06.294Z,23.1
2017-03-04T03:39:06.250Z,23.09
2017-03-04T03:40:06.164Z,23.12
2017-03-04T03:41:06.110Z,23.06
2017-03-04T03:42:06.044Z,23.09
2017-03-04T03:43:05.984Z,23.13
2017-03-04T03:44:05.921Z,23.06
2017-03-04T03:45:05.862Z,23.05
2017-03-04T03:46:05.814Z,23.12
2017-03-04T03:47:05.735Z,23.09
2017-03-04T03:48:05.679Z,23.06
2017-03-04T03:49:05.614Z,23.13
2017-03-04T03:50:05.552Z,23.09
2017-03-04T03:51:05.492Z,23.17
2017-03-04T03:52:05.430Z,23.1
2017-03-04T03:53:05.362Z,23.09
2017-03-04T03:54:05.329Z,23.09
2017-03-04T03:55:05.261Z,23.09
2017-03-04T03:56:05.191Z,23.18
2017-03-04T03:57:05.134Z,23.17
2017-03-04T03:58:05.062Z,23.09
2017-03-04T03:59:04.612Z,23.13
2017-03-04T04:00:04.931Z,23.08
2017-03-04T04:01:04.879Z,23.09
2017-03-04T04:02:04.824Z,23.09
2017-03-04T04:03:04.755Z,23.08
2017-03-04T04:04:04.682Z,23.13
2017-03-04T04:05:04.918Z,23.08
2017-03-04T04:06:04.562Z,23.09
2017-03-04T04:07:04.497Z,23.08
2017-03-04T04:08:04.736Z,23.13
2017-03-04T04:09:04.386Z,23.1
2017-03-04T04:10:04.318Z,23.1
2017-03-04T04:11:04.250Z,23.1
2017-03-04T04:12:04.200Z,23.05
2017-03-04T04:13:04.148Z,23.13
2017-03-04T04:14:04.063Z,23.12
2017-03-04T04:15:04.008Z,23.12
2017-03-04T04:16:03.970Z,23.2
2017-03-04T04:17:03.879Z,23.12
2017-03-04T04:18:03.827Z,23.15
2017-03-04T04:19:03.751Z,23.09
2017-03-04T04:20:03.719Z,23.12
2017-03-04T04:21:03.630Z,23.08
2017-03-04T04:22:03.569Z,23.1
2017-03-04T04:23:03.528Z,23.18
2017-03-04T04:24:03.443Z,23.12
2017-03-04T04:25:03.378Z,23.08
2017-03-04T04:26:03.331Z,23.09
2017-03-04T04:27:03.238Z,23.09
2017-03-04T04:28:03.198Z,23.09
2017-03-04T04:29:03.152Z,23.15
2017-03-04T04:30:03.088Z,23.06
2017-03-04T04:31:03.310Z,23.09
2017-03-04T04:32:02.944Z,23.09
2017-03-04T04:33:03.188Z,23.12
2017-03-04T04:34:02.830Z,23.12
2017-03-04T04:35:02.770Z,23.08
2017-03-04T04:36:02.325Z,23.1
2017-03-04T04:37:02.640Z,23.2
2017-03-04T04:38:02.582Z,23.09
2017-03-04T04:39:02.528Z,23.08
2017-03-04T04:40:02.468Z,23.09
2017-03-04T04:41:02.392Z,23.1
2017-03-04T04:42:02.329Z,23.09
2017-03-04T04:43:02.269Z,23.08
2017-03-04T04:44:02.220Z,23.09
2017-03-04T04:45:02.159Z,23.12
2017-03-04T04:46:02.077Z,23.1
2017-03-04T04:47:02.022Z,23.06
2017-03-04T04:48:01.966Z,23.08
2017-03-04T04:49:01.906Z,23.09
2017-03-04T04:50:01.933Z,23.09
2017-03-04T04:51:01.774Z,23.08
2017-03-04T04:52:01.716Z,23.06
2017-03-04T04:53:01.658Z,23.1
2017-03-04T04:54:01.590Z,23.12
2017-03-04T04:55:01.546Z,23.1
2017-03-04T04:56:01.460Z,23.05
2017-03-04T04:57:01.018Z,23.09
2017-03-04T04:58:01.336Z,23.2
2017-03-04T04:59:01.277Z,23.12
2017-03-04T05:00:01.535Z,23.18
2017-03-04T05:01:01.153Z,23.13
2017-03-04T05:02:01.104Z,23.12
2017-03-04T05:03:01.027Z,23.1
2017-03-04T05:04:00.969Z,23.1
2017-03-04T05:05:00.902Z,23.06
2017-03-04T05:06:01.151Z,23.12
2017-03-04T05:07:00.777Z,23.12
2017-03-04T05:08:00.722Z,23.09
2017-03-04T05:09:00.653Z,23.13
2017-03-04T05:10:00.609Z,23.09
2017-03-04T05:11:00.531Z,23.09
2017-03-04T05:12:00.498Z,23.18
2017-03-04T05:13:00.405Z,23.06
2017-03-04T05:14:00.362Z,23.1
2017-03-04T05:15:00.281Z,23.12
2017-03-04T05:16:00.240Z,23.12
2017-03-04T05:17:00.471Z,23.12
2017-03-04T05:18:00.093Z,23.1
2017-03-04T05:19:00.039Z,23.09
2017-03-04T05:19:59.971Z,23.18
2017-03-04T05:20:59.908Z,23.05
2017-03-04T05:21:59.857Z,23.12
2017-03-04T05:22:59.797Z,23.17
2017-03-04T05:23:59.724Z,23.1
2017-03-04T05:24:59.681Z,23.13
2017-03-04T05:25:59.607Z,23.12
2017-03-04T05:26:59.540Z,23.09
2017-03-04T05:27:59.477Z,23.09
2017-03-04T05:28:59.416Z,23.06
2017-03-04T05:29:59.353Z,23.13
2017-03-04T05:30:59.290Z,23.09
2017-03-04T05:31:59.240Z,23.13
2017-03-04T05:32:59.179Z,23.1
2017-03-04T05:33:59.131Z,23.1
2017-03-04T05:34:59.060Z,23.09
2017-03-04T05:35:58.998Z,23.1
2017-03-04T05:36:58.924Z,23.2
2017-03-04T05:37:58.873Z,23.1
2017-03-04T05:38:58.413Z,23.09
2017-03-04T05:39:58.343Z,23.15
2017-03-04T05:40:58.669Z,23.15
2017-03-04T05:41:58.607Z,23.12
2017-03-04T05:42:58.559Z,23.12
2017-03-04T05:43:58.483Z,23.13
2017-03-04T05:44:58.427Z,23.13
2017-03-04T05:45:58.362Z,23.12
2017-03-04T05:46:58.312Z,23.12
2017-03-04T05:47:58.237Z,23.09
2017-03-04T05:48:58.184Z,23.08
2017-03-04T05:49:58.126Z,23.12
2017-03-04T05:50:58.201Z,23.2
2017-03-04T05:51:57.989Z,23.1
2017-03-04T05:52:57.931Z,23.13
2017-03-04T05:53:57.868Z,23.12
2017-03-04T05:54:57.804Z,23.09
2017-03-04T05:55:57.772Z,23.2
2017-03-04T05:56:57.694Z,23.09
2017-03-04T05:57:57.618Z,23.1
2017-03-04T05:58:57.579Z,23.09
2017-03-04T05:59:57.496Z,23.13
2017-03-04T06:00:57.448Z,23.2
2017-03-04T06:01:57.383Z,23.13
2017-03-04T06:02:57.307Z,23.08
2017-03-04T06:03:57.254Z,23.13
2017-03-04T06:04:57.180Z,23.1
2017-03-04T06:05:57.127Z,23.03
2017-03-04T06:06:57.062Z,23.1
2017-03-04T06:07:56.605Z,23.09
2017-03-04T06:08:56.935Z,23.18
2017-03-04T06:09:56.894Z,23.09
2017-03-04T06:10:56.812Z,23.15
2017-03-04T06:11:56.750Z,23.09
2017-03-04T06:12:56.700Z,23.1
2017-03-04T06:13:56.631Z,23.13
2017-03-04T06:14:56.199Z,23.1
2017-03-04T06:15:56.211Z,23.12
2017-03-04T06:16:56.452Z,23.1
2017-03-04T06:17:56.664Z,23.1
2017-03-04T06:18:56.315Z,23.09
2017-03-04T06:19:56.264Z,23.06
2017-03-04T06:20:56.209Z,23.09
2017-03-04T06:21:56.135Z,23.08
2017-03-04T06:22:56.098Z,23.08
2017-03-04T06:23:56.006Z,23.09
2017-03-04T06:24:55.957Z,23.09
2017-03-04T06:25:55.882Z,23.09
2017-03-04T06:26:55.823Z,23.1
2017-03-04T06:27:55.761Z,23.17
2017-03-04T06:28:55.703Z,23.15
2017-03-04T06:29:55.643Z,23.13
2017-03-04T06:30:55.572Z,23.09
2017-03-04T06:31:55.517Z,23.17
2017-03-04T06:32:55.457Z,23.13
2017-03-04T06:33:55.404Z,23.08
2017-03-04T06:34:55.329Z,23.15
2017-03-04T06:35:55.263Z,23.18
2017-03-04T06:36:54.831Z,23.1
2017-03-04T06:37:55.140Z,23.09
2017-03-04T06:38:55.074Z,23.13
2017-03-04T06:39:55.064Z,23.09
2017-03-04T06:40:55.247Z,23.08
2017-03-04T06:41:54.903Z,23.08
2017-03-04T06:42:54.844Z,23.15
2017-03-04T06:43:54.766Z,23.15
2017-03-04T06:44:54.707Z,23.17
2017-03-04T06:45:54.647Z,23.08
2017-03-04T06:46:54.583Z,23.13
2017-03-04T06:47:54.516Z,23.05
2017-03-04T06:48:54.455Z,23.18
2017-03-04T06:49:54.414Z,23.1
2017-03-04T06:50:54.639Z,23.1
2017-03-04T06:51:54.276Z,23.08
2017-03-04T06:52:54.215Z,23.08
2017-03-04T06:53:53.759Z,23.12
2017-03-04T06:54:54.080Z,23.09
2017-03-04T06:55:54.027Z,23.15
2017-03-04T06:56:53.974Z,23.08
2017-03-04T06:57:53.515Z,23.17
2017-03-04T06:58:53.836Z,23.08
2017-03-04T06:59:53.786Z,23.08
2017-03-04T07:00:53.717Z,23.15
2017-03-04T07:01:53.654Z,23.1
2017-03-04T07:02:53.600Z,23.08
2017-03-04T07:03:53.534Z,23.18
2017-03-04T07:04:53.478Z,23.15
2017-03-04T07:05:53.415Z,23.03
2017-03-04T07:06:53.637Z,23.06
2017-03-04T07:07:53.291Z,23.02
2017-03-04T07:08:53.236Z,23.09
2017-03-04T07:09:53.186Z,23.17
2017-03-04T07:10:53.114Z,23.15
2017-03-04T07:11:53.032Z,23.1
2017-03-04T07:12:52.974Z,23.15
2017-03-04T07:13:52.909Z,23.12
2017-03-04T07:14:52.847Z,23.15
2017-03-04T07:15:53.333Z,23.09
2017-03-04T07:16:52.739Z,23.05
2017-03-04T07:17:52.663Z,23.18
2017-03-04T07:18:52.602Z,23.08
2017-03-04T07:19:52.548Z,23.13
2017-03-04T07:20:52.492Z,23.09
2017-03-04T07:21:52.417Z,23.06
2017-03-04T07:22:52.369Z,23.18
2017-03-04T07:23:52.300Z,23.18
2017-03-04T07:24:52.234Z,23.08
2017-03-04T07:25:52.181Z,23.2
2017-03-04T07:26:52.105Z,23.13
2017-03-04T07:27:52.337Z,23.1
2017-03-04T07:28:51.987Z,23.12
2017-03-04T07:29:51.918Z,23.08
2017-03-04T07:30:51.867Z,23.12
2017-03-04T07:31:51.807Z,23.1
2017-03-04T07:32:51.731Z,23.08
2017-03-04T07:33:51.676Z,23.1
2017-03-04T07:34:51.604Z,23.12
2017-03-04T07:35:51.545Z,23.17
2017-03-04T07:36:51.796Z,23.09
2017-03-04T07:37:51.419Z,23.08
2017-03-04T07:38:51.357Z,23.12
2017-03-04T07:39:51.297Z,23.13
2017-03-04T07:40:51.234Z,23.15
2017-03-04T07:41:51.469Z,23.12
2017-03-04T07:42:51.118Z,23.1
2017-03-04T07:43:51.047Z,23.08
2017-03-04T07:44:50.988Z,23.1
2017-03-04T07:45:50.948Z,23.09
2017-03-04T07:46:50.874Z,23.09
2017-03-04T07:47:50.805Z,23.08
2017-03-04T07:48:50.744Z,23.09
2017-03-04T07:49:50.679Z,23.15
2017-03-04T07:50:50.618Z,23.09
2017-03-04T07:51:50.555Z,23.15
2017-03-04T07:52:50.499Z,23.18
2017-03-04T07:53:50.443Z,23.09
2017-03-04T07:54:50.376Z,23.13
2017-03-04T07:55:50.305Z,23.18
2017-03-04T07:56:50.256Z,23.12
2017-03-04T07:57:50.197Z,23.06
2017-03-04T07:58:50.126Z,23.09
2017-03-04T07:59:50.070Z,23.12
2017-03-04T08:00:50.012Z,23.06
2017-03-04T08:01:49.960Z,23.1
2017-03-04T08:02:50.162Z,23.09
2017-03-04T08:03:49.821Z,23.18
2017-03-04T08:04:49.750Z,23.09
2017-03-04T08:05:49.680Z,23.09
2017-03-04T08:06:49.640Z,23.12
2017-03-04T08:07:49.566Z,23.1
2017-03-04T08:08:49.514Z,23.09
2017-03-04T08:09:49.440Z,23.06
2017-03-04T08:10:49.412Z,23.09
2017-03-04T08:11:49.315Z,23.18
2017-03-04T08:12:48.867Z,23.13
2017-03-04T08:13:49.363Z,23.12
2017-03-04T08:14:49.405Z,23.1
2017-03-04T08:15:49.132Z,23.12
2017-03-04T08:16:49.042Z,23.18
2017-03-04T08:17:48.997Z,23.12
2017-03-04T08:18:48.524Z,23.08
2017-03-04T08:19:48.822Z,23.05
2017-03-04T08:20:48.768Z,23.08
2017-03-04T08:21:48.700Z,23.09
2017-03-04T08:22:48.639Z,23.08
2017-03-04T08:23:48.599Z,23.08
2017-03-04T08:24:48.527Z,23.15
2017-03-04T08:25:48.459Z,23.08
2017-03-04T08:26:48.397Z,23.08
2017-03-04T08:27:48.328Z,23.15
2017-03-04T08:28:48.283Z,23.08
2017-03-04T08:29:48.220Z,23.15
2017-03-04T08:30:48.140Z,23.18
2017-03-04T08:31:48.086Z,23.18
2017-03-04T08:32:48.015Z,23.1
2017-03-04T08:33:47.952Z,23.18
2017-03-04T08:34:47.891Z,23.17
2017-03-04T08:35:48.146Z,23.17
2017-03-04T08:36:47.780Z,23.18
2017-03-04T08:37:47.714Z,23.17
2017-03-04T08:38:47.640Z,23.09
2017-03-04T08:39:47.650Z,23.09
2017-03-04T08:40:47.661Z,23.09
2017-03-04T08:41:47.452Z,23.17
2017-03-04T08:42:47.400Z,23.17
2017-03-04T08:43:47.326Z,23.08
2017-03-04T08:44:47.265Z,23.1
2017-03-04T08:45:47.217Z,23.17
2017-03-04T08:46:47.462Z,23.09
2017-03-04T08:47:47.097Z,23.12
2017-03-04T08:48:47.038Z,23.08
2017-03-04T08:49:46.960Z,23.08
2017-03-04T08:50:46.943Z,23.06
2017-03-04T08:51:47.192Z,23.15
2017-03-04T08:52:46.772Z,23.2
2017-03-04T08:53:46.723Z,23.17
2017-03-04T08:54:46.653Z,23.09
2017-03-04T08:55:46.578Z,23.13
2017-03-04T08:56:46.545Z,23.12
2017-03-04T08:57:46.475Z,23.17
2017-03-04T08:58:46.016Z,23.13
2017-03-04T08:59:46.354Z,23.09
2017-03-04T09:00:46.284Z,23.12
2017-03-04T09:01:46.217Z,23.13
2017-03-04T09:02:45.773Z,23.03
2017-03-04T09:03:46.093Z,23.15
2017-03-04T09:04:46.079Z,23.13
2017-03-04T09:05:45.969Z,23.12
2017-03-04T09:06:45.918Z,23.08
2017-03-04T09:07:45.859Z,23.1
2017-03-04T09:08:45.792Z,23.18
2017-03-04T09:09:46.013Z,23.15
2017-03-04T09:10:45.655Z,23.08
2017-03-04T09:11:45.597Z,23.13
2017-03-04T09:12:45.537Z,23.09
2017-03-04T09:13:45.473Z,23.1
2017-03-04T09:14:45.412Z,23.09
2017-03-04T09:15:45.357Z,23.05
2017-03-04T09:16:45.295Z,23.13
2017-03-04T09:17:45.526Z,23.17
2017-03-04T09:18:45.158Z,23.15
2017-03-04T09:19:45.100Z,23.09
2017-03-04T09:20:45.034Z,23.17
2017-03-04T09:21:44.977Z,23.17
2017-03-04T09:22:44.920Z,23.09
2017-03-04T09:23:44.868Z,23.13
2017-03-04T09:24:44.789Z,23.1
2017-03-04T09:25:44.735Z,23.1
2017-03-04T09:26:44.677Z,23.09
2017-03-04T09:27:44.601Z,23.12
2017-03-04T09:28:44.543Z,23.15
2017-03-04T09:29:44.495Z,23.09
2017-03-04T09:30:44.423Z,23.08
2017-03-04T09:31:44.361Z,23.13
2017-03-04T09:32:44.297Z,23.08
2017-03-04T09:33:44.258Z,23.15
2017-03-04T09:34:44.174Z,23.09
2017-03-04T09:35:44.129Z,23.09
2017-03-04T09:36:44.049Z,23.06
2017-03-04T09:37:43.992Z,23.08
2017-03-04T09:38:43.918Z,23.12
2017-03-04T09:39:43.863Z,23.17
2017-03-04T09:40:43.408Z,23.09
2017-03-04T09:41:43.734Z,23.08
2017-03-04T09:42:43.681Z,23.09
2017-03-04T09:43:43.620Z,23.2
2017-03-04T09:44:43.573Z,23.05
2017-03-04T09:45:43.784Z,23.18
2017-03-04T09:46:43.430Z,23.12
2017-03-04T09:47:43.365Z,23.12
2017-03-04T09:48:43.325Z,23.08
2017-03-04T09:49:43.262Z,23.06
2017-03-04T09:50:43.191Z,23.21
2017-03-04T09:51:43.125Z,23.06
2017-03-04T09:52:43.055Z,23.12
2017-03-04T09:53:42.992Z,23.13
2017-03-04T09:54:42.941Z,23.09
2017-03-04T09:55:42.884Z,23.09
2017-03-04T09:56:42.911Z,23.17
2017-03-04T09:57:42.824Z,23.1
2017-03-04T09:58:42.993Z,23.08
2017-03-04T09:59:42.324Z,23.08
2017-03-04T10:00:42.673Z,23.13
2017-03-04T10:01:42.593Z,23.08
2017-03-04T10:02:42.543Z,23.09
2017-03-04T10:03:42.079Z,23.08
2017-03-04T10:04:41.982Z,23.08
2017-03-04T10:05:42.394Z,23.09
2017-03-04T10:06:41.895Z,23.12
2017-03-04T10:07:42.192Z,23.09
2017-03-04T10:08:42.128Z,23.09
2017-03-04T10:09:42.158Z,23.13
2017-03-04T10:10:41.941Z,23.12
2017-03-04T10:11:41.875Z,23.09
2017-03-04T10:12:41.828Z,23.09
2017-03-04T10:13:41.771Z,23.09
2017-03-04T10:14:41.831Z,23.09
2017-03-04T10:15:41.630Z,23.17
2017-03-04T10:16:41.596Z,23.12
2017-03-04T10:17:41.511Z,23.15
2017-03-04T10:18:41.445Z,23.1
2017-03-04T10:19:41.378Z,23.1
2017-03-04T10:20:41.335Z,23.09
2017-03-04T10:21:41.256Z,23.09
2017-03-04T10:22:41.191Z,23.13
2017-03-04T10:23:41.153Z,23.08
2017-03-04T10:24:41.073Z,23.1
2017-03-04T10:25:41.007Z,23.08
2017-03-04T10:26:40.946Z,23.1
2017-03-04T10:27:41.185Z,23.1
2017-03-04T10:28:40.835Z,23.08
2017-03-04T10:29:41.083Z,23.12
2017-03-04T10:30:40.715Z,23.09
2017-03-04T10:31:40.664Z,23.13
2017-03-04T10:32:40.599Z,23.09
2017-03-04T10:33:40.530Z,23.2
2017-03-04T10:34:40.455Z,23.2
2017-03-04T10:35:40.401Z,23.1
2017-03-04T10:36:40.334Z,23.13
2017-03-04T10:37:40.267Z,23.09
2017-03-04T10:38:40.223Z,23.17
2017-03-04T10:39:39.784Z,23.12
2017-03-04T10:40:40.089Z,23.17
2017-03-04T10:41:40.026Z,23.08
2017-03-04T10:42:39.969Z,23.1
2017-03-04T10:43:39.908Z,23.17
2017-03-04T10:44:39.844Z,23.2
2017-03-04T10:45:39.778Z,23.08
2017-03-04T10:46:39.725Z,23.13
2017-03-04T10:47:39.657Z,23.09
2017-03-04T10:48:39.588Z,23.08
2017-03-04T10:49:39.816Z,23.13
2017-03-04T10:50:39.468Z,23.09
2017-03-04T10:51:39.407Z,23.08
2017-03-04T10:52:39.344Z,23.13
2017-03-04T10:53:39.562Z,23.13
2017-03-04T10:54:39.213Z,23.13
2017-03-04T10:55:38.770Z,23.12
2017-03-04T10:56:39.113Z,23.12
2017-03-04T10:57:39.026Z,23.09
2017-03-04T10:58:38.977Z,23.1
2017-03-04T10:59:38.910Z,23.12
2017-03-04T11:00:38.450Z,23.1
2017-03-04T11:01:38.779Z,23.1
2017-03-04T11:02:38.718Z,23.13
2017-03-04T11:03:38.654Z,23.06
2017-03-04T11:04:38.883Z,23.13
2017-03-04T11:05:38.543Z,23.13
2017-03-04T11:06:38.469Z,23.13
2017-03-04T11:07:38.460Z,23.15
2017-03-04T11:08:37.959Z,23.13
2017-03-04T11:09:38.298Z,23.13
2017-03-04T11:10:38.234Z,23.1
2017-03-04T11:11:37.772Z,23.2
2017-03-04T11:12:38.097Z,23.2
2017-03-04T11:13:38.050Z,23.09
2017-03-04T11:14:37.997Z,23.1
2017-03-04T11:15:37.909Z,23.1
2017-03-04T11:16:37.854Z,23.13
2017-03-04T11:17:37.800Z,23.09
2017-03-04T11:18:37.725Z,23.1
2017-03-04T11:19:37.663Z,23.12
2017-03-04T11:20:37.599Z,23.13
2017-03-04T11:21:37.543Z,23.1
2017-03-04T11:22:37.096Z,23.13
2017-03-04T11:23:37.416Z,23.12
2017-03-04T11:24:37.367Z,23.13
2017-03-04T11:25:37.305Z,23.13
2017-03-04T11:26:37.517Z,23.09
2017-03-04T11:27:36.780Z,23.12
2017-03-04T11:28:37.120Z,23.15
2017-03-04T11:29:37.043Z,23.15
2017-03-04T11:30:36.983Z,23.13
2017-03-04T11:31:36.940Z,23.1
2017-03-04T11:32:36.870Z,23.15
2017-03-04T11:33:36.798Z,23.13
2017-03-04T11:34:36.340Z,23.1
2017-03-04T11:35:36.305Z,23.18
2017-03-04T11:36:36.616Z,23.13
2017-03-04T11:37:36.553Z,23.15
2017-03-04T11:38:36.507Z,23.12
2017-03-04T11:39:36.432Z,23.13
2017-03-04T11:40:36.390Z,23.12
2017-03-04T11:41:36.305Z,23.15
2017-03-04T11:42:36.258Z,23.08
2017-03-04T11:43:36.191Z,23.17
2017-03-04T11:44:36.114Z,23.12
2017-03-04T11:45:36.057Z,23.17
2017-03-04T11:46:35.601Z,23.17
2017-03-04T11:47:35.950Z,23.18
2017-03-04T11:48:35.866Z,23.1
2017-03-04T11:49:35.805Z,23.13
2017-03-04T11:50:35.739Z,23.15
2017-03-04T11:51:35.680Z,23.18
2017-03-04T11:52:35.619Z,23.2
2017-03-04T11:53:35.561Z,23.17
2017-03-04T11:54:35.125Z,23.2
2017-03-04T11:55:35.453Z,23.12
2017-03-04T11:56:35.397Z,23.15
2017-03-04T11:57:35.597Z,23.08
2017-03-04T11:58:35.271Z,23.15
2017-03-04T11:59:35.201Z,23.13
2017-03-04T12:00:35.128Z,23.13
2017-03-04T12:01:35.073Z,23.2
2017-03-04T12:02:35.013Z,23.12
2017-03-04T12:03:34.946Z,23.13
2017-03-04T12:04:34.876Z,23.15
2017-03-04T12:05:34.815Z,23.12
2017-03-04T12:06:34.760Z,23.12
2017-03-04T12:07:34.714Z,23.2
2017-03-04T12:08:34.644Z,23.12
2017-03-04T12:09:34.574Z,23.18
2017-03-04T12:10:34.803Z,23.17
2017-03-04T12:11:34.465Z,23.2
2017-03-04T12:12:34.381Z,23.13
2017-03-04T12:13:34.334Z,23.17
2017-03-04T12:14:34.272Z,23.21
2017-03-04T12:15:34.193Z,23.1
2017-03-04T12:16:34.157Z,23.13
2017-03-04T12:17:33.677Z,23.13
2017-03-04T12:18:34.013Z,23.21
2017-03-04T12:19:33.947Z,23.15
2017-03-04T12:20:33.884Z,23.13
2017-03-04T12:21:33.839Z,23.12
2017-03-04T12:22:33.780Z,23.13
2017-03-04T12:23:33.713Z,23.15
2017-03-04T12:24:33.248Z,23.18
2017-03-04T12:25:33.608Z,23.12
2017-03-04T12:26:33.510Z,23.13
2017-03-04T12:27:33.084Z,23.13
2017-03-04T12:28:33.392Z,23.13
2017-03-04T12:29:32.951Z,23.24
2017-03-04T12:30:33.263Z,23.12
2017-03-04T12:31:33.221Z,23.2
2017-03-04T12:32:33.146Z,23.13
2017-03-04T12:33:33.080Z,23.1
2017-03-04T12:34:33.034Z,23.15
2017-03-04T12:35:32.962Z,23.2
2017-03-04T12:36:32.895Z,23.2
2017-03-04T12:37:32.830Z,23.12
2017-03-04T12:38:32.786Z,23.21
2017-03-04T12:39:32.720Z,23.12
2017-03-04T12:40:32.894Z,23.13
2017-03-04T12:41:32.201Z,23.12
2017-03-04T12:42:32.147Z,23.12
2017-03-04T12:43:32.757Z,23.13
2017-03-04T12:44:32.404Z,23.13
2017-03-04T12:45:32.349Z,23.21
2017-03-04T12:46:32.312Z,23.13
2017-03-04T12:47:32.215Z,23.2
2017-03-04T12:48:32.159Z,23.17
2017-03-04T12:49:32.118Z,23.12
2017-03-04T12:50:32.042Z,23.13
2017-03-04T12:51:31.983Z,23.18
2017-03-04T12:52:31.906Z,23.17
2017-03-04T12:53:31.847Z,23.2
2017-03-04T12:54:31.782Z,23.2
2017-03-04T12:55:31.326Z,23.18
2017-03-04T12:56:31.970Z,23.2
2017-03-04T12:57:31.604Z,23.12